Time;durP1;ratioP1;P1;durP2;ratioP2;P2;SDS_P1;SDS_P2;PMS_P1;PMS_P2;Temp;Humidity;BMP_temperature;BMP_pressure;BME280_temperature;BME280_humidity;BME280_pressure;Samples;Min_cycle;Max_cycle;Signal;HPM_P1;HPM_P2
2023/10/31 00:01:08;;;;;;;1999.90;999.90;;;12.40;99.90;;;;;;5061790;28;20448;-70
2023/10/31 00:03:36;;;;;;;1999.90;999.90;;;12.40;99.90;;;;;;5068878;28;20431;-70
2023/10/31 00:06:03;;;;;;;1999.90;999.90;;;12.40;99.90;;;;;;5068125;28;21037;-69
2023/10/31 00:08:29;;;;;;;1999.90;999.90;;;12.50;99.90;;;;;;5064799;28;20431;-70
2023/10/31 00:10:56;;;;;;;1999.90;999.90;;;12.40;99.90;;;;;;5064861;28;20423;-70
2023/10/31 00:13:23;;;;;;;1999.90;999.90;;;12.60;99.90;;;;;;5065362;28;20428;-71
2023/10/31 00:15:50;;;;;;;1999.90;999.90;;;12.40;99.90;;;;;;5083958;28;20428;-71
2023/10/31 00:18:16;;;;;;;1999.90;999.90;;;12.30;99.90;;;;;;5083951;28;20427;-70
2023/10/31 00:20:46;;;;;;;1999.90;999.90;;;12.40;99.90;;;;;;5079773;28;20759;-71
2023/10/31 00:23:12;;;;;;;1999.90;999.90;;;12.40;99.90;;;;;;5072490;28;20427;-70
2023/10/31 00:25:39;;;;;;;1999.90;999.90;;;12.50;99.90;;;;;;5061170;28;20427;-70
2023/10/31 00:28:06;;;;;;;1999.90;999.90;;;12.50;99.90;;;;;;5064554;28;20443;-70
2023/10/31 00:30:32;;;;;;;1999.90;999.90;;;12.50;99.90;;;;;;5063231;28;20479;-70
2023/10/31 00:32:59;;;;;;;1999.90;999.90;;;12.50;99.90;;;;;;5068344;28;20440;-70
2023/10/31 00:35:26;;;;;;;1999.90;999.90;;;12.50;99.90;;;;;;5067246;28;20431;-70
2023/10/31 00:37:54;;;;;;;1999.90;999.90;;;12.60;99.90;;;;;;5066021;28;20434;-70
2023/10/31 00:40:21;;;;;;;1999.90;999.90;;;12.30;99.90;;;;;;5060088;28;20436;-70
2023/10/31 00:42:47;;;;;;;1999.90;999.90;;;12.40;99.90;;;;;;5068333;28;20423;-70
2023/10/31 00:45:14;;;;;;;1999.90;999.90;;;12.50;99.90;;;;;;5067971;28;20431;-69
2023/10/31 00:47:41;;;;;;;1999.90;999.90;;;12.40;99.90;;;;;;5067973;28;20442;-70
2023/10/31 00:50:09;;;;;;;1999.90;999.90;;;12.20;99.90;;;;;;5062193;28;20434;-70
2023/10/31 00:52:35;;;;;;;1999.90;999.90;;;12.40;99.90;;;;;;5061879;28;20432;-70
2023/10/31 00:55:04;;;;;;;1999.90;999.90;;;12.50;99.90;;;;;;5068015;28;20502;-70
2023/10/31 00:57:31;;;;;;;1999.90;999.90;;;12.40;99.90;;;;;;5061075;28;20454;-69
2023/10/31 00:59:58;;;;;;;1999.90;999.90;;;12.30;99.90;;;;;;5067954;28;20438;-71
2023/10/31 01:02:24;;;;;;;1999.90;999.90;;;12.30;99.90;;;;;;5062325;28;20458;-70
2023/10/31 01:04:51;;;;;;;1999.90;999.90;;;12.30;99.90;;;;;;5064743;28;20435;-70
2023/10/31 01:07:18;;;;;;;1999.90;999.90;;;12.40;99.90;;;;;;5066404;28;20442;-70
2023/10/31 01:09:45;;;;;;;1999.90;999.90;;;12.40;99.90;;;;;;5067809;28;20427;-71
2023/10/31 01:12:13;;;;;;;1999.90;999.90;;;12.20;99.90;;;;;;5061244;28;20474;-70
2023/10/31 01:14:40;;;;;;;1999.90;999.90;;;12.30;99.90;;;;;;5067830;28;20497;-71
2023/10/31 01:17:06;;;;;;;1999.90;999.90;;;12.40;99.90;;;;;;5067577;28;20430;-70
2023/10/31 01:19:33;;;;;;;1999.90;999.90;;;12.50;99.90;;;;;;5065442;28;20445;-70
2023/10/31 01:22:00;;;;;;;1999.90;999.90;;;12.40;99.90;;;;;;5060943;28;20429;-70
2023/10/31 01:24:27;;;;;;;1999.90;999.90;;;12.50;99.90;;;;;;5066633;28;20462;-70
2023/10/31 01:26:53;;;;;;;1999.90;999.90;;;12.40;99.90;;;;;;5065063;28;21035;-69
2023/10/31 01:29:21;;;;;;;1999.90;999.90;;;12.50;99.90;;;;;;5063210;28;20436;-70
2023/10/31 01:31:48;;;;;;;1999.90;999.90;;;12.40;99.90;;;;;;5066643;28;20439;-70
2023/10/31 01:34:15;;;;;;;1999.90;999.90;;;12.30;99.90;;;;;;5069016;28;20431;-70
2023/10/31 01:36:42;;;;;;;1999.90;999.90;;;12.30;99.90;;;;;;5066468;28;20442;-70
2023/10/31 01:39:09;;;;;;;1999.90;999.90;;;12.40;99.90;;;;;;5071113;28;20431;-70
2023/10/31 01:41:36;;;;;;;1999.90;999.90;;;12.40;99.90;;;;;;5070245;28;20428;-70
2023/10/31 01:44:03;;;;;;;1999.90;999.90;;;12.40;99.90;;;;;;5071004;28;20489;-69
2023/10/31 01:46:31;;;;;;;1999.90;999.90;;;12.50;99.90;;;;;;5059683;28;20437;-70
2023/10/31 01:48:58;;;;;;;1999.90;999.90;;;12.40;99.90;;;;;;5069911;28;20442;-70
2023/10/31 01:51:26;;;;;;;1999.90;999.90;;;12.60;99.90;;;;;;5069129;28;20432;-70
2023/10/31 01:53:53;;;;;;;1999.90;999.90;;;12.30;99.90;;;;;;5070140;28;20427;-69
2023/10/31 01:56:20;;;;;;;1999.90;999.90;;;12.50;99.90;;;;;;5066651;28;20425;-70
2023/10/31 01:58:50;;;;;;;1999.90;999.90;;;12.60;99.90;;;;;;5065440;28;20423;-70
2023/10/31 02:01:17;;;;;;;1999.90;999.90;;;12.60;99.90;;;;;;5066916;28;20450;-69
2023/10/31 02:03:45;;;;;;;1999.90;999.90;;;12.60;99.90;;;;;;5069938;28;20443;-70
2023/10/31 02:06:11;;;;;;;1999.90;999.90;;;12.70;99.90;;;;;;5068666;28;20428;-71
2023/10/31 02:08:38;;;;;;;1999.90;999.90;;;12.70;99.90;;;;;;5070137;28;20442;-69
2023/10/31 02:11:09;;;;;;;1999.90;999.90;;;12.50;99.90;;;;;;5055728;28;20445;-70
2023/10/31 02:13:36;;;;;;;1999.90;999.90;;;12.50;99.90;;;;;;5067807;28;21109;-68
2023/10/31 02:16:04;;;;;;;1999.90;999.90;;;12.50;99.90;;;;;;5069713;28;20438;-70
2023/10/31 02:18:31;;;;;;;1999.90;999.90;;;12.40;99.90;;;;;;5065951;28;20431;-70
2023/10/31 02:20:59;;;;;;;1999.90;999.90;;;12.40;99.90;;;;;;5066932;28;20917;-70
2023/10/31 02:23:27;;;;;;;1999.90;999.90;;;12.40;99.90;;;;;;5068768;28;20433;-70
2023/10/31 02:25:54;;;;;;;1999.90;999.90;;;12.20;99.90;;;;;;5070187;28;20432;-70
2023/10/31 02:28:20;;;;;;;1999.90;999.90;;;12.30;99.90;;;;;;5067445;28;20443;-70
2023/10/31 02:30:47;;;;;;;1999.90;999.90;;;12.40;99.90;;;;;;5066394;28;20438;-70
2023/10/31 02:33:16;;;;;;;1999.90;999.90;;;12.40;99.90;;;;;;5069553;28;20522;-70
2023/10/31 02:35:42;;;;;;;1999.90;999.90;;;12.40;99.90;;;;;;5068579;28;20427;-70
2023/10/31 02:38:09;;;;;;;1999.90;999.90;;;12.40;99.90;;;;;;5063733;28;20427;-70
2023/10/31 02:40:37;;;;;;;1999.90;999.90;;;12.40;99.90;;;;;;5060463;28;20432;-70
2023/10/31 02:43:04;;;;;;;1999.90;999.90;;;12.30;99.90;;;;;;5069333;28;20434;-70
2023/10/31 02:45:31;;;;;;;1999.90;999.90;;;12.40;99.90;;;;;;5069694;28;20809;-71
2023/10/31 02:47:58;;;;;;;1999.90;999.90;;;12.40;99.90;;;;;;5067366;28;20939;-70
2023/10/31 02:50:24;;;;;;;1999.90;999.90;;;12.30;99.90;;;;;;5066006;28;20457;-70
2023/10/31 02:52:51;;;;;;;1999.90;999.90;;;12.50;99.90;;;;;;5066136;28;20443;-70
2023/10/31 02:55:18;;;;;;;1999.90;999.90;;;12.50;99.90;;;;;;5069760;28;20438;-70
2023/10/31 02:57:46;;;;;;;1999.90;999.90;;;12.40;99.90;;;;;;5068828;28;20809;-70
2023/10/31 03:00:14;;;;;;;1999.90;999.90;;;12.30;99.90;;;;;;5067744;28;20870;-70
2023/10/31 03:02:40;;;;;;;1999.90;999.90;;;12.30;99.90;;;;;;5069098;28;20423;-70
2023/10/31 03:05:08;;;;;;;1999.90;999.90;;;12.40;99.90;;;;;;5063353;28;20442;-69
2023/10/31 03:07:34;;;;;;;1999.90;999.90;;;12.50;99.90;;;;;;5068145;28;20436;-69
2023/10/31 03:10:01;;;;;;;1999.90;999.90;;;12.50;99.90;;;;;;5065975;28;20925;-70
2023/10/31 03:12:29;;;;;;;1999.90;999.90;;;12.50;99.90;;;;;;5069556;28;20427;-70
2023/10/31 03:14:57;;;;;;;1999.90;999.90;;;12.50;99.90;;;;;;5067328;28;20876;-70
2023/10/31 03:17:25;;;;;;;1999.90;999.90;;;12.50;99.90;;;;;;5066963;28;20427;-70
2023/10/31 03:19:52;;;;;;;1999.90;999.90;;;12.60;99.90;;;;;;5065011;28;20435;-70
2023/10/31 03:22:18;;;;;;;1999.90;999.90;;;12.60;99.90;;;;;;5069123;28;20434;-70
2023/10/31 03:24:45;;;;;;;1999.90;999.90;;;12.70;99.90;;;;;;5068490;28;20435;-70
2023/10/31 03:27:12;;;;;;;1999.90;999.90;;;12.70;99.90;;;;;;5066460;28;20454;-70
2023/10/31 03:29:39;;;;;;;1999.90;999.90;;;12.80;99.90;;;;;;5068141;28;20431;-70
2023/10/31 03:32:07;;;;;;;1999.90;999.90;;;12.90;99.90;;;;;;5067541;28;20435;-70
2023/10/31 03:34:34;;;;;;;1999.90;999.90;;;13.00;99.90;;;;;;5063856;28;20462;-70
2023/10/31 03:37:01;;;;;;;1999.90;999.90;;;13.20;99.90;;;;;;5068834;28;20429;-70
2023/10/31 03:39:27;;;;;;;1999.90;999.90;;;13.20;99.90;;;;;;5065983;28;20935;-70
2023/10/31 03:41:54;;;;;;;1999.90;999.90;;;13.20;99.90;;;;;;5068640;28;20436;-69
2023/10/31 03:44:21;;;;;;;1999.90;999.90;;;12.80;99.90;;;;;;5068203;28;20797;-70
2023/10/31 03:46:48;;;;;;;1999.90;999.90;;;13.40;99.90;;;;;;5068924;28;20506;-70
2023/10/31 03:49:16;;;;;;;1999.90;999.90;;;13.30;99.90;;;;;;5066046;28;20450;-70
2023/10/31 03:51:42;;;;;;;1999.90;999.90;;;13.40;99.90;;;;;;5068571;28;20809;-70
2023/10/31 03:54:09;;;;;;;1999.90;999.90;;;13.40;99.90;;;;;;5064723;28;20436;-70
2023/10/31 03:56:40;;;;;;;1999.90;999.90;;;13.40;99.90;;;;;;5064216;28;20438;-70
2023/10/31 03:59:07;;;;;;;1999.90;999.90;;;13.30;99.90;;;;;;5062212;28;20501;-70
2023/10/31 04:01:34;;;;;;;1999.90;999.90;;;13.40;99.90;;;;;;5068374;28;20436;-70
2023/10/31 04:04:01;;;;;;;1999.90;999.90;;;13.50;99.90;;;;;;5067289;28;20454;-71
2023/10/31 04:06:29;;;;;;;1999.90;999.90;;;13.50;99.90;;;;;;5065621;28;20423;-70
2023/10/31 04:08:56;;;;;;;1999.90;999.90;;;13.50;99.90;;;;;;5067129;28;20933;-69
2023/10/31 04:11:22;;;;;;;1999.90;999.90;;;13.50;99.90;;;;;;5067524;28;20463;-69
2023/10/31 04:13:49;;;;;;;1999.90;999.90;;;13.50;99.90;;;;;;5068275;28;21180;-70
2023/10/31 04:16:16;;;;;;;1999.90;999.90;;;13.60;99.90;;;;;;5067040;28;20423;-69
2023/10/31 04:18:43;;;;;;;1999.90;999.90;;;13.50;99.90;;;;;;5065138;28;20806;-70
2023/10/31 04:21:09;;;;;;;1999.90;999.90;;;13.60;99.90;;;;;;5065652;28;20434;-70
2023/10/31 04:23:37;;;;;;;1999.90;999.90;;;13.50;99.90;;;;;;5062588;28;20438;-69
2023/10/31 04:26:05;;;;;;;1999.90;999.90;;;13.50;99.90;;;;;;5068078;28;20543;-70
2023/10/31 04:28:31;;;;;;;1999.90;999.90;;;13.40;99.90;;;;;;5065589;28;20438;-69
2023/10/31 04:30:58;;;;;;;1999.90;999.90;;;13.40;99.90;;;;;;5064335;28;20435;-70
2023/10/31 04:33:25;;;;;;;1999.90;999.90;;;13.30;99.90;;;;;;5067892;28;20438;-69
2023/10/31 04:35:52;;;;;;;1999.90;999.90;;;13.30;99.90;;;;;;5066321;28;20434;-70
2023/10/31 04:38:18;;;;;;;1999.90;999.90;;;13.20;99.90;;;;;;5063579;28;20431;-69
2023/10/31 04:40:46;;;;;;;1999.90;999.90;;;13.20;99.90;;;;;;5067135;28;20438;-70
2023/10/31 04:43:13;;;;;;;1999.90;999.90;;;13.10;99.90;;;;;;5068051;28;20439;-69
2023/10/31 04:45:40;;;;;;;1999.90;999.90;;;13.10;99.90;;;;;;5066969;28;20435;-70
2023/10/31 04:48:06;;;;;;;1999.90;999.90;;;12.90;99.90;;;;;;5066083;28;20427;-69
2023/10/31 04:50:33;;;;;;;1999.90;999.90;;;12.90;99.90;;;;;;5062126;28;20427;-70
2023/10/31 04:53:00;;;;;;;1999.90;999.90;;;12.70;99.90;;;;;;5068196;28;20809;-70
2023/10/31 04:55:27;;;;;;;1999.90;999.90;;;12.70;99.90;;;;;;5068294;28;20524;-70
2023/10/31 04:57:55;;;;;;;1999.90;999.90;;;12.70;99.90;;;;;;5068841;28;20427;-70
2023/10/31 05:00:21;;;;;;;1999.90;999.90;;;12.60;99.90;;;;;;5083512;28;20433;-70
2023/10/31 05:02:48;;;;;;;1999.90;999.90;;;12.50;99.90;;;;;;5088624;28;20428;-70
2023/10/31 05:05:16;;;;;;;1999.90;999.90;;;12.50;99.90;;;;;;5081782;28;20429;-70
2023/10/31 05:07:43;;;;;;;1999.90;999.90;;;12.30;99.90;;;;;;5065294;28;20435;-69
2023/10/31 05:10:10;;;;;;;1999.90;999.90;;;12.20;99.90;;;;;;5068486;28;20439;-71
2023/10/31 05:12:37;;;;;;;1999.90;999.90;;;12.20;99.90;;;;;;5069938;28;20820;-70
2023/10/31 05:15:06;;;;;;;1999.90;999.90;;;12.20;99.90;;;;;;5069276;28;20497;-70
2023/10/31 05:17:33;;;;;;;1999.90;999.90;;;12.00;99.90;;;;;;5070168;28;20423;-70
2023/10/31 05:20:00;;;;;;;1999.90;999.90;;;12.00;99.90;;;;;;5071632;28;20431;-69
2023/10/31 05:22:27;;;;;;;1999.90;999.90;;;12.00;99.90;;;;;;5070774;28;20431;-69
2023/10/31 05:24:53;;;;;;;1999.90;999.90;;;12.00;99.90;;;;;;5071430;28;20431;-70
2023/10/31 05:27:20;;;;;;;1999.90;999.90;;;12.00;99.90;;;;;;5063221;28;20506;-69
2023/10/31 05:29:47;;;;;;;1999.90;999.90;;;12.00;99.90;;;;;;5058427;28;20435;-70
2023/10/31 05:32:15;;;;;;;1999.90;999.90;;;12.00;99.90;;;;;;5060800;28;20436;-70
2023/10/31 05:34:42;;;;;;;1999.90;999.90;;;12.00;99.90;;;;;;5067529;28;20467;-69
2023/10/31 05:37:09;;;;;;;1999.90;999.90;;;12.00;99.90;;;;;;5058067;28;20473;-70
2023/10/31 05:39:36;;;;;;;1999.90;999.90;;;11.90;99.90;;;;;;5065634;28;20507;-69
2023/10/31 05:42:03;;;;;;;1999.90;999.90;;;11.80;99.90;;;;;;5069528;28;20431;-70
2023/10/31 05:44:30;;;;;;;1999.90;999.90;;;11.80;99.90;;;;;;5067279;28;20431;-69
2023/10/31 05:46:56;;;;;;;1999.90;999.90;;;11.80;99.90;;;;;;5064817;28;20431;-70
2023/10/31 05:49:24;;;;;;;1999.90;999.90;;;11.80;99.90;;;;;;5070414;28;20442;-70
2023/10/31 05:51:52;;;;;;;1999.90;999.90;;;11.80;99.90;;;;;;5061428;28;20427;-69
2023/10/31 05:54:19;;;;;;;1999.90;999.90;;;11.80;99.90;;;;;;5066997;28;20481;-69
2023/10/31 05:56:46;;;;;;;1999.90;999.90;;;11.80;99.90;;;;;;5069280;28;20432;-69
2023/10/31 05:59:12;;;;;;;1999.90;999.90;;;11.70;99.90;;;;;;5063172;28;20919;-69
2023/10/31 06:01:39;;;;;;;1999.90;999.90;;;11.70;99.90;;;;;;5070439;28;20426;-69
2023/10/31 06:04:06;;;;;;;1999.90;999.90;;;11.80;99.90;;;;;;5066397;28;20439;-70
2023/10/31 06:06:37;;;;;;;1999.90;999.90;;;11.70;99.90;;;;;;5064826;28;20443;-69
2023/10/31 06:09:04;;;;;;;1999.90;999.90;;;11.70;99.90;;;;;;5069228;28;20440;-69
2023/10/31 06:11:31;;;;;;;1999.90;999.90;;;11.70;99.90;;;;;;5064836;28;20484;-69
2023/10/31 06:13:59;;;;;;;1999.90;999.90;;;11.60;99.90;;;;;;5064609;28;20435;-69
2023/10/31 06:16:26;;;;;;;1999.90;999.90;;;11.60;99.90;;;;;;5059853;28;20433;-70
2023/10/31 06:18:52;;;;;;;1999.90;999.90;;;11.70;99.90;;;;;;5066726;28;20921;-69
2023/10/31 06:21:19;;;;;;;1999.90;999.90;;;11.60;99.90;;;;;;5068544;28;20431;-70
2023/10/31 06:23:47;;;;;;;1999.90;999.90;;;11.60;99.90;;;;;;5064947;28;20947;-69
2023/10/31 06:26:14;;;;;;;1999.90;999.90;;;11.60;99.90;;;;;;5080179;28;20443;-69
2023/10/31 06:28:41;;;;;;;1999.90;999.90;;;11.60;99.90;;;;;;5083426;28;20502;-69
2023/10/31 06:31:07;;;;;;;1999.90;999.90;;;11.60;99.90;;;;;;5080626;28;20435;-70
2023/10/31 06:33:35;;;;;;;1999.90;999.90;;;11.60;99.90;;;;;;5070462;28;20426;-70
2023/10/31 06:36:02;;;;;;;1999.90;999.90;;;11.70;99.90;;;;;;5068611;28;20443;-70
2023/10/31 06:38:29;;;;;;;1999.90;999.90;;;11.70;99.90;;;;;;5069170;28;20443;-71
2023/10/31 06:40:57;;;;;;;1999.90;999.90;;;11.70;99.90;;;;;;5065311;28;20424;-70
2023/10/31 06:43:24;;;;;;;1999.90;999.90;;;11.80;99.90;;;;;;5065783;28;20433;-70
2023/10/31 06:45:51;;;;;;;1999.90;999.90;;;11.80;99.90;;;;;;5061613;28;20450;-69
2023/10/31 06:48:17;;;;;;;1999.90;999.90;;;11.80;99.90;;;;;;5064875;28;20427;-69
2023/10/31 06:50:44;;;;;;;1999.90;999.90;;;11.90;99.90;;;;;;5067276;28;20440;-70
2023/10/31 06:53:11;;;;;;;1999.90;999.90;;;12.00;99.90;;;;;;5065101;28;20432;-69
2023/10/31 06:55:37;;;;;;;1999.90;999.90;;;12.00;99.90;;;;;;5063348;28;20440;-70
2023/10/31 06:58:05;;;;;;;1999.90;999.90;;;11.90;99.90;;;;;;5065043;28;20424;-70
2023/10/31 07:00:32;;;;;;;1999.90;999.90;;;11.90;99.90;;;;;;5062460;28;20469;-69
2023/10/31 07:03:04;;;;;;;1999.90;999.90;;;11.90;99.90;;;;;;5068676;28;20431;-70
2023/10/31 07:05:31;;;;;;;1999.90;999.90;;;11.90;99.90;;;;;;5065588;28;20531;-68
2023/10/31 07:07:58;;;;;;;1999.90;999.90;;;12.10;99.90;;;;;;5067792;28;20424;-70
2023/10/31 07:10:25;;;;;;;1999.90;999.90;;;12.00;99.90;;;;;;5064005;28;20462;-70
2023/10/31 07:12:51;;;;;;;1999.90;999.90;;;12.00;99.90;;;;;;5065461;28;20814;-70
2023/10/31 07:15:20;;;;;;;1999.90;999.90;;;12.00;99.90;;;;;;5067408;28;20447;-69
2023/10/31 07:17:47;;;;;;;1999.90;999.90;;;12.10;99.90;;;;;;5065193;28;20936;-70
2023/10/31 07:20:14;;;;;;;1999.90;999.90;;;12.10;99.90;;;;;;5067247;28;20442;-69
2023/10/31 07:22:41;;;;;;;1999.90;999.90;;;12.10;99.90;;;;;;5060986;28;20433;-70
2023/10/31 07:25:09;;;;;;;1999.90;999.90;;;12.20;99.90;;;;;;5063133;28;20445;-69
2023/10/31 07:27:36;;;;;;;1999.90;999.90;;;12.10;99.90;;;;;;5064738;28;20443;-70
2023/10/31 07:30:03;;;;;;;1999.90;999.90;;;12.20;99.90;;;;;;5066235;28;20438;-70
2023/10/31 07:32:32;;;;;;;1999.90;999.90;;;12.20;99.90;;;;;;5058060;28;20830;-70
2023/10/31 07:34:58;;;;;;;1999.90;999.90;;;12.10;99.90;;;;;;5061667;28;20427;-70
2023/10/31 07:37:25;;;;;;;1999.90;999.90;;;12.20;99.90;;;;;;5066541;28;20431;-70
2023/10/31 07:39:52;;;;;;;1999.90;999.90;;;12.20;99.90;;;;;;5061328;28;20931;-70
2023/10/31 07:42:19;;;;;;;1999.90;999.90;;;12.40;99.90;;;;;;5067564;28;20428;-70
2023/10/31 07:44:46;;;;;;;1999.90;999.90;;;12.40;99.90;;;;;;5068209;28;20852;-69
2023/10/31 07:47:13;;;;;;;1999.90;999.90;;;12.40;99.90;;;;;;5067389;28;20433;-69
2023/10/31 07:49:41;;;;;;;1999.90;999.90;;;12.40;99.90;;;;;;5064455;28;20446;-70
2023/10/31 07:52:08;;;;;;;1999.90;999.90;;;12.40;99.90;;;;;;5065363;28;20427;-69
2023/10/31 07:54:34;;;;;;;1999.90;999.90;;;12.50;99.90;;;;;;5066518;28;20431;-70
2023/10/31 07:57:01;;;;;;;1999.90;999.90;;;12.50;99.90;;;;;;5054985;28;20439;-70
2023/10/31 07:59:28;;;;;;;1999.90;999.90;;;12.60;99.90;;;;;;5061455;28;20419;-69
2023/10/31 08:01:54;;;;;;;1999.90;999.90;;;12.70;99.90;;;;;;5064484;28;20437;-70
2023/10/31 08:04:21;;;;;;;1999.90;999.90;;;12.80;99.90;;;;;;5058243;28;20909;-70
2023/10/31 08:06:49;;;;;;;1999.90;999.90;;;12.70;99.90;;;;;;5068212;28;20442;-70
2023/10/31 08:09:16;;;;;;;1999.90;999.90;;;12.60;99.90;;;;;;5064697;28;20436;-71
2023/10/31 08:11:43;;;;;;;1999.90;999.90;;;12.60;99.90;;;;;;5066174;28;20481;-70
2023/10/31 08:14:10;;;;;;;1999.90;999.90;;;12.60;99.90;;;;;;5070473;28;20416;-70
2023/10/31 08:16:37;;;;;;;1999.90;999.90;;;12.60;99.90;;;;;;5071231;28;20419;-70
2023/10/31 08:19:04;;;;;;;1999.90;999.90;;;12.60;99.90;;;;;;5070061;28;20423;-70
2023/10/31 08:21:34;;;;;;;1999.90;999.90;;;12.70;99.90;;;;;;5071341;28;20418;-69
2023/10/31 08:24:03;;;;;;;1999.90;999.90;;;12.90;99.90;;;;;;5071488;28;20415;-69
2023/10/31 08:26:29;;;;;;;1999.90;999.90;;;13.20;99.90;;;;;;5071875;28;20423;-69
2023/10/31 08:28:56;;;;;;;1999.90;999.90;;;13.30;99.90;;;;;;5071297;28;20802;-70
2023/10/31 08:31:23;;;;;;;1999.90;999.90;;;13.40;99.90;;;;;;5071237;28;20412;-71
2023/10/31 08:33:49;;;;;;;1999.90;999.90;;;13.50;99.90;;;;;;5070357;28;20431;-70
2023/10/31 08:36:16;;;;;;;1999.90;999.90;;;13.60;99.90;;;;;;5071448;28;20419;-70
2023/10/31 08:38:43;;;;;;;1999.90;999.90;;;13.50;99.90;;;;;;5071370;28;20412;-70
2023/10/31 08:41:11;;;;;;;1999.90;999.90;;;13.50;99.90;;;;;;5070701;28;20415;-70
2023/10/31 08:43:38;;;;;;;1999.90;999.90;;;13.40;99.90;;;;;;5070724;28;20414;-69
2023/10/31 08:46:05;;;;;;;1999.90;999.90;;;13.30;99.90;;;;;;5070625;28;20894;-69
2023/10/31 08:48:33;;;;;;;1999.90;999.90;;;13.50;99.90;;;;;;5069264;28;20435;-69
2023/10/31 08:50:59;;;;;;;1999.90;999.90;;;13.70;99.90;;;;;;5070621;28;20423;-69
2023/10/31 08:53:27;;;;;;;1999.90;999.90;;;13.80;99.90;;;;;;5070686;28;20412;-70
2023/10/31 08:55:54;;;;;;;1999.90;999.90;;;13.70;99.90;;;;;;5070476;28;20412;-69
2023/10/31 08:58:22;;;;;;;1999.90;999.90;;;13.60;99.90;;;;;;5070109;28;20407;-69
2023/10/31 09:00:48;;;;;;;1999.90;999.90;;;13.50;99.90;;;;;;5070069;28;20407;-70
2023/10/31 09:03:15;;;;;;;1999.90;999.90;;;13.60;99.90;;;;;;5069065;28;20435;-69
2023/10/31 09:05:42;;;;;;;1999.90;999.90;;;13.70;99.90;;;;;;5070193;28;20415;-70
2023/10/31 09:08:10;;;;;;;1999.90;999.90;;;13.50;99.90;;;;;;5067833;28;20518;-69
2023/10/31 09:10:38;;;;;;;1999.90;999.90;;;13.50;99.90;;;;;;5059842;28;20439;-69
2023/10/31 09:13:05;;;;;;;1999.90;999.90;;;13.30;99.90;;;;;;5066217;28;20445;-70
2023/10/31 09:15:33;;;;;;;1999.90;999.90;;;13.30;99.90;;;;;;5061045;28;20439;-70
2023/10/31 09:18:00;;;;;;;1999.90;999.90;;;13.30;99.90;;;;;;5064546;28;20435;-70
2023/10/31 09:20:27;;;;;;;1999.90;999.90;;;13.30;99.90;;;;;;5067011;28;20423;-69
2023/10/31 09:22:54;;;;;;;1999.90;999.90;;;13.40;99.90;;;;;;5066915;28;20457;-69
2023/10/31 09:25:21;;;;;;;1999.90;999.90;;;13.30;99.90;;;;;;5061713;28;20431;-70
2023/10/31 09:27:47;;;;;;;1999.90;999.90;;;13.30;99.90;;;;;;5061561;28;20436;-69
2023/10/31 09:30:14;;;;;;;1999.90;999.90;;;13.10;99.90;;;;;;5065070;28;20936;-70
2023/10/31 09:32:42;;;;;;;1999.90;999.90;;;13.00;99.90;;;;;;5067708;28;20431;-69
2023/10/31 09:35:09;;;;;;;1999.90;999.90;;;13.00;99.90;;;;;;5065274;28;20450;-68
2023/10/31 09:37:36;;;;;;;1999.90;999.90;;;13.00;99.90;;;;;;5062292;28;20963;-70
2023/10/31 09:40:03;;;;;;;1999.90;999.90;;;12.80;99.90;;;;;;5067165;28;20424;-69
2023/10/31 09:42:29;;;;;;;1999.90;999.90;;;12.70;99.90;;;;;;5067348;28;20443;-69
2023/10/31 09:44:56;;;;;;;1999.90;999.90;;;12.80;99.90;;;;;;5065289;28;20459;-70
2023/10/31 09:47:23;;;;;;;1999.90;999.90;;;13.00;99.90;;;;;;5065962;28;20496;-69
2023/10/31 09:49:51;;;;;;;1999.90;999.90;;;13.30;99.90;;;;;;5061457;28;20938;-70
2023/10/31 09:52:20;;;;;;;1999.90;999.90;;;13.50;99.90;;;;;;5066494;28;20427;-70
2023/10/31 09:54:48;;;;;;;1999.90;999.90;;;13.80;99.90;;;;;;5069036;28;20807;-69
2023/10/31 09:57:17;;;;;;;1999.90;999.90;;;13.70;99.90;;;;;;5062377;28;20435;-70
2023/10/31 09:59:43;;;;;;;1999.90;999.90;;;13.80;99.90;;;;;;5060773;28;20429;-70
2023/10/31 10:02:10;;;;;;;1999.90;999.90;;;13.80;99.90;;;;;;5067571;28;21116;-69
2023/10/31 10:04:38;;;;;;;1999.90;999.90;;;13.70;99.90;;;;;;5072861;28;20431;-70
2023/10/31 10:07:06;;;;;;;1999.90;999.90;;;13.60;99.90;;;;;;5082398;28;20431;-70
2023/10/31 10:09:33;;;;;;;1999.90;999.90;;;13.40;99.90;;;;;;5083800;28;20501;-69
2023/10/31 10:12:01;;;;;;;1999.90;999.90;;;13.40;99.90;;;;;;5077498;28;20794;-70
2023/10/31 10:14:31;;;;;;;1999.90;999.90;;;13.30;99.90;;;;;;5069260;28;20432;-69
2023/10/31 10:16:58;;;;;;;1999.90;999.90;;;13.20;99.90;;;;;;5068393;28;20431;-70
2023/10/31 10:19:25;;;;;;;1999.90;999.90;;;13.30;99.90;;;;;;5070390;28;20420;-70
2023/10/31 10:21:53;;;;;;;1999.90;999.90;;;13.40;99.90;;;;;;5058226;28;21012;-70
2023/10/31 10:24:22;;;;;;;1999.90;999.90;;;13.50;99.90;;;;;;5060711;28;20454;-71
2023/10/31 10:26:50;;;;;;;1999.90;999.90;;;13.50;99.90;;;;;;5068312;28;20431;-70
2023/10/31 10:29:17;;;;;;;1999.90;999.90;;;13.70;99.90;;;;;;5069888;28;20801;-70
2023/10/31 10:31:45;;;;;;;1999.90;999.90;;;13.80;99.90;;;;;;5065183;28;20487;-69
2023/10/31 10:34:14;;;;;;;1999.90;999.90;;;13.80;99.90;;;;;;5059995;28;20423;-69
2023/10/31 10:36:41;;;;;;;1999.90;999.90;;;13.90;99.90;;;;;;5061833;28;21081;-70
2023/10/31 10:39:09;;;;;;;1999.90;999.90;;;14.10;99.90;;;;;;5070435;28;20418;-69
2023/10/31 10:41:41;;;;;;;1999.90;999.90;;;14.20;99.90;;;;;;5070698;28;20436;-70
2023/10/31 10:44:09;;;;;;;1999.90;999.90;;;14.10;99.90;;;;;;5055816;28;20433;-68
2023/10/31 10:46:37;;;;;;;1999.90;999.90;;;14.00;99.90;;;;;;5057896;28;20905;-69
2023/10/31 10:49:06;;;;;;;1999.90;999.90;;;13.90;99.90;;;;;;5062790;28;20433;-70
2023/10/31 10:51:53;;;;;;;1999.90;999.90;;;13.70;99.90;;;;;;5066972;28;20436;-69
2023/10/31 10:54:27;;;;;;;1999.90;999.90;;;14.10;99.90;;;;;;5059235;28;20425;-70
2023/10/31 10:56:59;;;;;;;1999.90;999.90;;;13.90;99.90;;;;;;5055079;28;20503;-69
2023/10/31 10:59:36;;;;;;;1999.90;999.90;;;13.80;99.90;;;;;;5063972;28;20428;-70
2023/10/31 11:02:04;;;;;;;1999.90;999.90;;;13.50;99.90;;;;;;5063133;28;20437;-70
2023/10/31 11:04:32;;;;;;;1999.90;999.90;;;13.50;99.90;;;;;;5067514;28;20428;-69
2023/10/31 11:07:00;;;;;;;1999.90;999.90;;;13.70;99.90;;;;;;5062380;28;20519;-70
2023/10/31 11:09:27;;;;;;;1999.90;999.90;;;13.90;99.90;;;;;;5063513;28;20431;-69
2023/10/31 11:11:57;;;;;;;1999.90;999.90;;;14.10;99.90;;;;;;5070753;28;20807;-70
2023/10/31 11:14:24;;;;;;;1999.90;999.90;;;14.10;99.90;;;;;;5062237;28;20434;-70
2023/10/31 11:16:55;;;;;;;1999.90;999.90;;;14.30;99.90;;;;;;5065133;28;20436;-70
2023/10/31 11:19:23;;;;;;;1999.90;999.90;;;14.20;99.90;;;;;;5062163;28;20432;-71
2023/10/31 11:21:58;;;;;;;1999.90;999.90;;;14.20;99.90;;;;;;5056450;28;20438;-70
2023/10/31 11:24:27;;;;;;;1999.90;999.90;;;14.00;99.90;;;;;;5059723;28;20428;-69
2023/10/31 11:26:59;;;;;;;1999.90;999.90;;;14.10;99.90;;;;;;5060754;28;20437;-70
2023/10/31 11:29:27;;;;;;;1999.90;999.90;;;14.10;99.90;;;;;;5052436;28;20948;-69
2023/10/31 11:31:56;;;;;;;1999.90;999.90;;;14.10;99.90;;;;;;5058807;28;20777;-69
2023/10/31 11:34:23;;;;;;;1999.90;999.90;;;14.10;99.90;;;;;;5058746;28;20461;-70
2023/10/31 11:36:51;;;;;;;1999.90;999.90;;;14.10;99.90;;;;;;5061674;28;20435;-70
2023/10/31 11:39:21;;;;;;;1999.90;999.90;;;14.10;99.90;;;;;;5068209;28;20960;-69
2023/10/31 11:41:51;;;;;;;1999.90;999.90;;;14.10;99.90;;;;;;5052212;28;20516;-70
2023/10/31 11:44:18;;;;;;;1999.90;999.90;;;14.10;99.90;;;;;;5056942;28;21032;-70
2023/10/31 11:46:50;;;;;;;1999.90;999.90;;;14.00;99.90;;;;;;5063193;28;20427;-70
2023/10/31 11:49:17;;;;;;;1999.90;999.90;;;14.20;99.90;;;;;;5066320;28;20467;-69
2023/10/31 11:51:47;;;;;;;1999.90;999.90;;;14.50;99.90;;;;;;5060574;28;20454;-69
2023/10/31 11:54:14;;;;;;;1999.90;999.90;;;14.70;99.90;;;;;;5054395;28;20433;-70
2023/10/31 11:56:41;;;;;;;1999.90;999.90;;;14.80;99.90;;;;;;5064071;28;20435;-70
2023/10/31 11:59:08;;;;;;;1999.90;999.90;;;14.70;99.90;;;;;;5069534;28;20986;-69